sensor_id;sensor_type;location;lat;lon;timestamp;P1;durP1;ratioP1;P2;durP2;ratioP2
62574;SDS011;70119;45.638;11.714;2023-07-31T00:00:44;4.30;;;2.22;;
62574;SDS011;70119;45.638;11.714;2023-07-31T00:03:11;3.55;;;2.17;;
62574;SDS011;70119;45.638;11.714;2023-07-31T00:05:37;3.00;;;2.10;;
62574;SDS011;70119;45.638;11.714;2023-07-31T00:08:03;3.05;;;2.20;;
62574;SDS011;70119;45.638;11.714;2023-07-31T00:10:29;2.60;;;2.20;;
62574;SDS011;70119;45.638;11.714;2023-07-31T00:12:55;2.20;;;2.00;;
62574;SDS011;70119;45.638;11.714;2023-07-31T00:15:20;2.25;;;2.05;;
62574;SDS011;70119;45.638;11.714;2023-07-31T00:17:46;2.47;;;2.20;;
62574;SDS011;70119;45.638;11.714;2023-07-31T00:20:12;2.50;;;2.10;;
62574;SDS011;70119;45.638;11.714;2023-07-31T00:22:38;2.45;;;2.00;;
62574;SDS011;70119;45.638;11.714;2023-07-31T00:25:04;2.60;;;2.10;;
62574;SDS011;70119;45.638;11.714;2023-07-31T00:27:31;2.60;;;2.22;;
62574;SDS011;70119;45.638;11.714;2023-07-31T00:29:57;2.80;;;2.10;;
62574;SDS011;70119;45.638;11.714;2023-07-31T00:32:23;3.08;;;2.10;;
62574;SDS011;70119;45.638;11.714;2023-07-31T00:34:49;2.60;;;2.20;;
62574;SDS011;70119;45.638;11.714;2023-07-31T00:37:15;2.35;;;2.00;;
62574;SDS011;70119;45.638;11.714;2023-07-31T00:39:41;3.00;;;2.13;;
62574;SDS011;70119;45.638;11.714;2023-07-31T00:42:07;2.50;;;2.10;;
62574;SDS011;70119;45.638;11.714;2023-07-31T00:44:33;2.85;;;2.28;;
62574;SDS011;70119;45.638;11.714;2023-07-31T00:46:59;4.20;;;2.20;;
62574;SDS011;70119;45.638;11.714;2023-07-31T00:49:25;4.38;;;2.45;;
62574;SDS011;70119;45.638;11.714;2023-07-31T00:51:52;3.40;;;2.30;;
62574;SDS011;70119;45.638;11.714;2023-07-31T00:54:18;2.53;;;2.00;;
62574;SDS011;70119;45.638;11.714;2023-07-31T00:56:45;2.22;;;2.03;;
62574;SDS011;70119;45.638;11.714;2023-07-31T00:59:13;2.47;;;2.20;;
62574;SDS011;70119;45.638;11.714;2023-07-31T01:01:39;2.58;;;2.20;;
62574;SDS011;70119;45.638;11.714;2023-07-31T01:04:05;2.72;;;2.38;;
62574;SDS011;70119;45.638;11.714;2023-07-31T01:10:23;3.42;;;2.10;;
62574;SDS011;70119;45.638;11.714;2023-07-31T01:12:26;3.92;;;2.35;;
62574;SDS011;70119;45.638;11.714;2023-07-31T01:15:12;2.70;;;2.33;;
62574;SDS011;70119;45.638;11.714;2023-07-31T01:17:41;2.50;;;2.30;;
62574;SDS011;70119;45.638;11.714;2023-07-31T01:20:10;2.60;;;2.28;;
62574;SDS011;70119;45.638;11.714;2023-07-31T01:25:55;2.30;;;2.10;;
62574;SDS011;70119;45.638;11.714;2023-07-31T01:28:33;2.70;;;2.03;;
62574;SDS011;70119;45.638;11.714;2023-07-31T01:31:05;2.30;;;2.10;;
62574;SDS011;70119;45.638;11.714;2023-07-31T01:33:36;2.83;;;2.10;;
62574;SDS011;70119;45.638;11.714;2023-07-31T01:36:03;2.45;;;2.10;;
62574;SDS011;70119;45.638;11.714;2023-07-31T01:38:29;2.90;;;2.15;;
62574;SDS011;70119;45.638;11.714;2023-07-31T01:40:55;3.40;;;2.20;;
62574;SDS011;70119;45.638;11.714;2023-07-31T01:43:21;2.20;;;2.00;;
62574;SDS011;70119;45.638;11.714;2023-07-31T01:45:47;2.55;;;2.22;;
62574;SDS011;70119;45.638;11.714;2023-07-31T01:48:12;3.78;;;2.35;;
62574;SDS011;70119;45.638;11.714;2023-07-31T01:50:38;2.92;;;2.20;;
62574;SDS011;70119;45.638;11.714;2023-07-31T01:53:04;2.67;;;2.42;;
62574;SDS011;70119;45.638;11.714;2023-07-31T01:55:30;3.42;;;2.40;;
62574;SDS011;70119;45.638;11.714;2023-07-31T01:57:56;2.85;;;2.30;;
62574;SDS011;70119;45.638;11.714;2023-07-31T02:00:22;2.55;;;2.35;;
62574;SDS011;70119;45.638;11.714;2023-07-31T02:02:47;3.83;;;2.50;;
62574;SDS011;70119;45.638;11.714;2023-07-31T02:05:13;2.30;;;2.10;;
62574;SDS011;70119;45.638;11.714;2023-07-31T02:07:39;2.90;;;2.33;;
62574;SDS011;70119;45.638;11.714;2023-07-31T02:10:05;2.50;;;2.30;;
62574;SDS011;70119;45.638;11.714;2023-07-31T02:12:31;2.47;;;2.22;;
62574;SDS011;70119;45.638;11.714;2023-07-31T02:14:58;3.38;;;2.40;;
62574;SDS011;70119;45.638;11.714;2023-07-31T02:17:24;3.05;;;2.33;;
62574;SDS011;70119;45.638;11.714;2023-07-31T02:19:50;3.30;;;2.50;;
62574;SDS011;70119;45.638;11.714;2023-07-31T02:22:16;4.05;;;2.30;;
62574;SDS011;70119;45.638;11.714;2023-07-31T02:24:42;3.97;;;2.30;;
62574;SDS011;70119;45.638;11.714;2023-07-31T02:27:07;3.35;;;2.60;;
62574;SDS011;70119;45.638;11.714;2023-07-31T02:29:33;2.58;;;2.38;;
62574;SDS011;70119;45.638;11.714;2023-07-31T02:31:59;2.67;;;2.47;;
62574;SDS011;70119;45.638;11.714;2023-07-31T02:34:25;3.15;;;2.30;;
62574;SDS011;70119;45.638;11.714;2023-07-31T02:36:51;2.65;;;2.45;;
62574;SDS011;70119;45.638;11.714;2023-07-31T02:39:16;2.92;;;2.63;;
62574;SDS011;70119;45.638;11.714;2023-07-31T02:41:42;3.40;;;2.50;;
62574;SDS011;70119;45.638;11.714;2023-07-31T02:44:08;3.42;;;2.75;;
62574;SDS011;70119;45.638;11.714;2023-07-31T02:46:35;2.97;;;2.53;;
62574;SDS011;70119;45.638;11.714;2023-07-31T02:49:01;3.00;;;2.47;;
62574;SDS011;70119;45.638;11.714;2023-07-31T02:51:27;4.82;;;2.70;;
62574;SDS011;70119;45.638;11.714;2023-07-31T02:53:52;3.40;;;2.83;;
62574;SDS011;70119;45.638;11.714;2023-07-31T02:56:18;3.90;;;2.80;;
62574;SDS011;70119;45.638;11.714;2023-07-31T02:58:44;2.97;;;2.65;;
62574;SDS011;70119;45.638;11.714;2023-07-31T03:01:10;3.70;;;2.80;;
62574;SDS011;70119;45.638;11.714;2023-07-31T03:03:36;3.38;;;2.90;;
62574;SDS011;70119;45.638;11.714;2023-07-31T03:06:02;2.90;;;2.60;;
62574;SDS011;70119;45.638;11.714;2023-07-31T03:08:28;3.35;;;2.83;;
62574;SDS011;70119;45.638;11.714;2023-07-31T03:10:53;3.35;;;3.00;;
62574;SDS011;70119;45.638;11.714;2023-07-31T03:13:19;3.42;;;2.88;;
62574;SDS011;70119;45.638;11.714;2023-07-31T03:15:45;4.03;;;2.90;;
62574;SDS011;70119;45.638;11.714;2023-07-31T03:18:11;4.25;;;3.20;;
62574;SDS011;70119;45.638;11.714;2023-07-31T03:20:37;3.42;;;2.80;;
62574;SDS011;70119;45.638;11.714;2023-07-31T03:23:06;3.45;;;2.70;;
62574;SDS011;70119;45.638;11.714;2023-07-31T03:25:32;2.92;;;2.63;;
62574;SDS011;70119;45.638;11.714;2023-07-31T03:27:58;3.28;;;2.97;;
62574;SDS011;70119;45.638;11.714;2023-07-31T03:30:24;4.13;;;3.10;;
62574;SDS011;70119;45.638;11.714;2023-07-31T03:32:50;3.75;;;2.88;;
62574;SDS011;70119;45.638;11.714;2023-07-31T03:35:16;3.17;;;2.88;;
62574;SDS011;70119;45.638;11.714;2023-07-31T03:37:41;3.22;;;2.80;;
62574;SDS011;70119;45.638;11.714;2023-07-31T03:40:07;4.78;;;2.95;;
62574;SDS011;70119;45.638;11.714;2023-07-31T03:42:34;3.53;;;3.00;;
62574;SDS011;70119;45.638;11.714;2023-07-31T03:44:59;3.30;;;2.67;;
62574;SDS011;70119;45.638;11.714;2023-07-31T03:47:26;3.10;;;2.80;;
62574;SDS011;70119;45.638;11.714;2023-07-31T03:49:51;3.45;;;2.90;;
62574;SDS011;70119;45.638;11.714;2023-07-31T03:52:17;4.78;;;3.00;;
62574;SDS011;70119;45.638;11.714;2023-07-31T03:54:43;4.60;;;3.08;;
62574;SDS011;70119;45.638;11.714;2023-07-31T03:57:12;3.00;;;2.70;;
62574;SDS011;70119;45.638;11.714;2023-07-31T03:59:38;3.92;;;2.80;;
62574;SDS011;70119;45.638;11.714;2023-07-31T04:02:04;4.15;;;3.00;;
62574;SDS011;70119;45.638;11.714;2023-07-31T04:04:30;4.07;;;2.70;;
62574;SDS011;70119;45.638;11.714;2023-07-31T04:06:56;3.58;;;2.92;;
62574;SDS011;70119;45.638;11.714;2023-07-31T04:09:22;3.22;;;2.75;;
62574;SDS011;70119;45.638;11.714;2023-07-31T04:11:47;4.50;;;2.70;;
62574;SDS011;70119;45.638;11.714;2023-07-31T04:14:13;3.00;;;2.70;;
62574;SDS011;70119;45.638;11.714;2023-07-31T04:16:39;3.05;;;2.60;;
62574;SDS011;70119;45.638;11.714;2023-07-31T04:19:05;3.00;;;2.70;;
62574;SDS011;70119;45.638;11.714;2023-07-31T04:21:31;3.95;;;2.90;;
62574;SDS011;70119;45.638;11.714;2023-07-31T04:23:57;3.38;;;2.70;;
62574;SDS011;70119;45.638;11.714;2023-07-31T04:26:23;2.80;;;2.50;;
62574;SDS011;70119;45.638;11.714;2023-07-31T04:28:49;3.03;;;2.65;;
62574;SDS011;70119;45.638;11.714;2023-07-31T04:31:15;3.67;;;2.80;;
62574;SDS011;70119;45.638;11.714;2023-07-31T04:33:41;3.25;;;2.67;;
62574;SDS011;70119;45.638;11.714;2023-07-31T04:36:06;2.70;;;2.50;;
62574;SDS011;70119;45.638;11.714;2023-07-31T04:38:32;3.15;;;2.67;;
62574;SDS011;70119;45.638;11.714;2023-07-31T04:40:58;2.85;;;2.47;;
62574;SDS011;70119;45.638;11.714;2023-07-31T04:43:24;3.40;;;2.78;;
62574;SDS011;70119;45.638;11.714;2023-07-31T04:45:50;3.63;;;2.58;;
62574;SDS011;70119;45.638;11.714;2023-07-31T04:48:16;4.30;;;2.60;;
62574;SDS011;70119;45.638;11.714;2023-07-31T04:50:41;5.00;;;3.00;;
62574;SDS011;70119;45.638;11.714;2023-07-31T04:53:09;5.15;;;2.83;;
62574;SDS011;70119;45.638;11.714;2023-07-31T04:55:35;3.28;;;2.60;;
62574;SDS011;70119;45.638;11.714;2023-07-31T04:58:00;4.15;;;2.60;;
62574;SDS011;70119;45.638;11.714;2023-07-31T05:00:26;3.53;;;2.80;;
62574;SDS011;70119;45.638;11.714;2023-07-31T05:02:54;2.60;;;2.40;;
62574;SDS011;70119;45.638;11.714;2023-07-31T05:05:27;3.03;;;2.67;;
62574;SDS011;70119;45.638;11.714;2023-07-31T05:10:24;2.90;;;2.60;;
62574;SDS011;70119;45.638;11.714;2023-07-31T05:12:50;2.90;;;2.60;;
62574;SDS011;70119;45.638;11.714;2023-07-31T05:15:15;3.60;;;2.58;;
62574;SDS011;70119;45.638;11.714;2023-07-31T05:17:41;3.00;;;2.63;;
62574;SDS011;70119;45.638;11.714;2023-07-31T05:20:07;2.92;;;2.50;;
62574;SDS011;70119;45.638;11.714;2023-07-31T05:22:35;3.00;;;2.63;;
62574;SDS011;70119;45.638;11.714;2023-07-31T05:25:10;3.53;;;2.50;;
62574;SDS011;70119;45.638;11.714;2023-07-31T05:27:36;3.63;;;2.70;;
62574;SDS011;70119;45.638;11.714;2023-07-31T05:30:02;4.57;;;2.50;;
62574;SDS011;70119;45.638;11.714;2023-07-31T05:32:28;2.67;;;2.45;;
62574;SDS011;70119;45.638;11.714;2023-07-31T05:34:54;3.40;;;2.40;;
62574;SDS011;70119;45.638;11.714;2023-07-31T05:37:21;6.93;;;2.50;;
62574;SDS011;70119;45.638;11.714;2023-07-31T05:39:47;3.20;;;2.70;;
62574;SDS011;70119;45.638;11.714;2023-07-31T05:42:14;2.58;;;2.38;;
62574;SDS011;70119;45.638;11.714;2023-07-31T05:44:42;2.60;;;2.30;;
62574;SDS011;70119;45.638;11.714;2023-07-31T05:47:12;3.20;;;2.67;;
62574;SDS011;70119;45.638;11.714;2023-07-31T05:49:40;2.85;;;2.60;;
62574;SDS011;70119;45.638;11.714;2023-07-31T05:52:07;3.42;;;2.63;;
62574;SDS011;70119;45.638;11.714;2023-07-31T05:54:41;2.90;;;2.60;;
62574;SDS011;70119;45.638;11.714;2023-07-31T05:57:14;3.03;;;2.65;;
62574;SDS011;70119;45.638;11.714;2023-07-31T05:59:53;3.40;;;2.70;;
62574;SDS011;70119;45.638;11.714;2023-07-31T06:02:25;3.03;;;2.50;;
62574;SDS011;70119;45.638;11.714;2023-07-31T06:05:04;6.53;;;2.92;;
62574;SDS011;70119;45.638;11.714;2023-07-31T06:07:40;4.00;;;2.65;;
62574;SDS011;70119;45.638;11.714;2023-07-31T06:10:10;4.03;;;2.70;;
62574;SDS011;70119;45.638;11.714;2023-07-31T06:12:41;3.75;;;2.60;;
62574;SDS011;70119;45.638;11.714;2023-07-31T06:15:12;3.15;;;2.80;;
62574;SDS011;70119;45.638;11.714;2023-07-31T06:17:48;4.00;;;2.97;;
62574;SDS011;70119;45.638;11.714;2023-07-31T06:20:17;2.75;;;2.50;;
62574;SDS011;70119;45.638;11.714;2023-07-31T06:22:47;2.67;;;2.35;;
62574;SDS011;70119;45.638;11.714;2023-07-31T06:25:25;4.97;;;2.63;;
62574;SDS011;70119;45.638;11.714;2023-07-31T06:27:57;3.45;;;2.45;;
62574;SDS011;70119;45.638;11.714;2023-07-31T06:30:32;2.80;;;2.30;;
62574;SDS011;70119;45.638;11.714;2023-07-31T06:33:10;2.67;;;2.47;;
62574;SDS011;70119;45.638;11.714;2023-07-31T06:35:47;3.55;;;2.50;;
62574;SDS011;70119;45.638;11.714;2023-07-31T06:38:25;2.83;;;2.35;;
62574;SDS011;70119;45.638;11.714;2023-07-31T06:40:53;2.83;;;2.40;;
62574;SDS011;70119;45.638;11.714;2023-07-31T06:43:25;8.40;;;2.47;;
62574;SDS011;70119;45.638;11.714;2023-07-31T06:46:09;3.25;;;2.58;;
62574;SDS011;70119;45.638;11.714;2023-07-31T06:48:44;3.70;;;2.45;;
62574;SDS011;70119;45.638;11.714;2023-07-31T06:51:36;2.50;;;2.30;;
62574;SDS011;70119;45.638;11.714;2023-07-31T06:54:05;3.00;;;2.33;;
62574;SDS011;70119;45.638;11.714;2023-07-31T06:56:31;2.80;;;2.40;;
62574;SDS011;70119;45.638;11.714;2023-07-31T06:58:57;2.55;;;2.25;;
62574;SDS011;70119;45.638;11.714;2023-07-31T07:01:25;2.70;;;2.50;;
62574;SDS011;70119;45.638;11.714;2023-07-31T07:04:04;2.88;;;2.20;;
62574;SDS011;70119;45.638;11.714;2023-07-31T07:06:31;2.97;;;2.30;;
62574;SDS011;70119;45.638;11.714;2023-07-31T07:08:59;3.03;;;2.40;;
62574;SDS011;70119;45.638;11.714;2023-07-31T07:11:31;2.88;;;2.20;;
62574;SDS011;70119;45.638;11.714;2023-07-31T07:14:01;4.57;;;2.38;;
62574;SDS011;70119;45.638;11.714;2023-07-31T07:16:33;2.42;;;2.22;;
62574;SDS011;70119;45.638;11.714;2023-07-31T07:19:00;2.55;;;2.30;;
62574;SDS011;70119;45.638;11.714;2023-07-31T07:21:32;3.40;;;2.30;;
62574;SDS011;70119;45.638;11.714;2023-07-31T07:24:03;3.88;;;2.40;;
62574;SDS011;70119;45.638;11.714;2023-07-31T07:26:30;2.60;;;2.40;;
62574;SDS011;70119;45.638;11.714;2023-07-31T07:28:58;3.35;;;2.40;;
62574;SDS011;70119;45.638;11.714;2023-07-31T07:31:27;2.70;;;2.30;;
62574;SDS011;70119;45.638;11.714;2023-07-31T07:33:55;2.22;;;2.03;;
62574;SDS011;70119;45.638;11.714;2023-07-31T07:36:22;2.75;;;2.30;;
62574;SDS011;70119;45.638;11.714;2023-07-31T07:38:48;2.67;;;2.40;;
62574;SDS011;70119;45.638;11.714;2023-07-31T07:41:14;3.08;;;2.38;;
62574;SDS011;70119;45.638;11.714;2023-07-31T07:43:40;2.53;;;2.17;;
62574;SDS011;70119;45.638;11.714;2023-07-31T07:46:06;2.35;;;2.13;;
62574;SDS011;70119;45.638;11.714;2023-07-31T07:48:32;3.13;;;2.42;;
62574;SDS011;70119;45.638;11.714;2023-07-31T07:50:59;2.60;;;2.38;;
62574;SDS011;70119;45.638;11.714;2023-07-31T07:53:25;2.58;;;2.30;;
62574;SDS011;70119;45.638;11.714;2023-07-31T07:55:52;2.38;;;2.17;;
62574;SDS011;70119;45.638;11.714;2023-07-31T07:58:18;2.60;;;2.00;;
62574;SDS011;70119;45.638;11.714;2023-07-31T08:00:51;3.13;;;2.00;;
62574;SDS011;70119;45.638;11.714;2023-07-31T08:03:18;2.72;;;2.20;;
62574;SDS011;70119;45.638;11.714;2023-07-31T08:05:44;2.15;;;1.90;;
62574;SDS011;70119;45.638;11.714;2023-07-31T08:08:16;2.88;;;2.28;;
62574;SDS011;70119;45.638;11.714;2023-07-31T08:10:45;2.28;;;2.05;;
62574;SDS011;70119;45.638;11.714;2023-07-31T08:13:11;2.30;;;2.10;;
62574;SDS011;70119;45.638;11.714;2023-07-31T08:15:37;2.40;;;2.20;;
62574;SDS011;70119;45.638;11.714;2023-07-31T08:18:06;2.25;;;2.05;;
62574;SDS011;70119;45.638;11.714;2023-07-31T08:20:47;2.28;;;2.08;;
62574;SDS011;70119;45.638;11.714;2023-07-31T08:23:13;3.10;;;2.03;;
62574;SDS011;70119;45.638;11.714;2023-07-31T08:25:39;2.20;;;2.00;;
62574;SDS011;70119;45.638;11.714;2023-07-31T08:28:05;2.00;;;1.90;;
62574;SDS011;70119;45.638;11.714;2023-07-31T08:30:34;2.00;;;1.80;;
62574;SDS011;70119;45.638;11.714;2023-07-31T08:33:00;2.10;;;1.90;;
62574;SDS011;70119;45.638;11.714;2023-07-31T08:35:26;2.08;;;1.88;;
62574;SDS011;70119;45.638;11.714;2023-07-31T08:37:55;2.88;;;2.30;;
62574;SDS011;70119;45.638;11.714;2023-07-31T08:40:21;2.22;;;2.00;;
62574;SDS011;70119;45.638;11.714;2023-07-31T08:42:48;2.42;;;2.05;;
62574;SDS011;70119;45.638;11.714;2023-07-31T08:45:18;2.90;;;2.30;;
62574;SDS011;70119;45.638;11.714;2023-07-31T08:47:46;2.30;;;2.08;;
62574;SDS011;70119;45.638;11.714;2023-07-31T08:50:14;2.28;;;2.08;;
62574;SDS011;70119;45.638;11.714;2023-07-31T08:52:41;2.45;;;2.17;;
62574;SDS011;70119;45.638;11.714;2023-07-31T08:55:07;2.85;;;2.10;;
62574;SDS011;70119;45.638;11.714;2023-07-31T08:57:36;2.20;;;2.00;;
62574;SDS011;70119;45.638;11.714;2023-07-31T09:00:07;2.40;;;2.20;;
62574;SDS011;70119;45.638;11.714;2023-07-31T09:02:35;2.22;;;2.03;;
62574;SDS011;70119;45.638;11.714;2023-07-31T09:05:06;4.18;;;2.50;;
62574;SDS011;70119;45.638;11.714;2023-07-31T09:07:34;2.20;;;2.00;;
62574;SDS011;70119;45.638;11.714;2023-07-31T09:10:01;2.33;;;2.13;;
62574;SDS011;70119;45.638;11.714;2023-07-31T09:12:27;2.42;;;2.20;;
62574;SDS011;70119;45.638;11.714;2023-07-31T09:14:53;2.22;;;1.95;;
62574;SDS011;70119;45.638;11.714;2023-07-31T09:17:29;2.30;;;2.10;;
62574;SDS011;70119;45.638;11.714;2023-07-31T09:19:56;2.30;;;2.10;;
62574;SDS011;70119;45.638;11.714;2023-07-31T09:22:32;2.10;;;1.90;;
62574;SDS011;70119;45.638;11.714;2023-07-31T09:25:07;2.63;;;2.00;;
62574;SDS011;70119;45.638;11.714;2023-07-31T09:27:54;2.08;;;1.98;;
62574;SDS011;70119;45.638;11.714;2023-07-31T09:32:49;2.63;;;2.00;;
62574;SDS011;70119;45.638;11.714;2023-07-31T09:37:54;2.75;;;2.10;;
62574;SDS011;70119;45.638;11.714;2023-07-31T09:40:29;2.97;;;2.10;;
62574;SDS011;70119;45.638;11.714;2023-07-31T09:42:57;2.08;;;1.88;;
62574;SDS011;70119;45.638;11.714;2023-07-31T09:45:24;2.50;;;2.15;;
62574;SDS011;70119;45.638;11.714;2023-07-31T09:47:51;2.17;;;1.85;;
62574;SDS011;70119;45.638;11.714;2023-07-31T09:50:17;2.30;;;2.10;;
62574;SDS011;70119;45.638;11.714;2023-07-31T09:52:45;3.17;;;2.00;;
62574;SDS011;70119;45.638;11.714;2023-07-31T09:55:10;1.80;;;1.70;;
62574;SDS011;70119;45.638;11.714;2023-07-31T09:57:38;2.40;;;1.80;;
62574;SDS011;70119;45.638;11.714;2023-07-31T10:00:08;2.33;;;1.90;;
62574;SDS011;70119;45.638;11.714;2023-07-31T10:02:36;3.55;;;2.10;;
62574;SDS011;70119;45.638;11.714;2023-07-31T10:05:03;2.30;;;2.00;;
62574;SDS011;70119;45.638;11.714;2023-07-31T10:07:31;3.05;;;1.80;;
62574;SDS011;70119;45.638;11.714;2023-07-31T10:10:01;1.80;;;1.70;;
62574;SDS011;70119;45.638;11.714;2023-07-31T10:12:29;2.15;;;1.70;;
62574;SDS011;70119;45.638;11.714;2023-07-31T10:15:00;2.40;;;1.83;;
62574;SDS011;70119;45.638;11.714;2023-07-31T10:17:26;2.53;;;2.05;;
62574;SDS011;70119;45.638;11.714;2023-07-31T10:19:55;2.88;;;2.10;;
62574;SDS011;70119;45.638;11.714;2023-07-31T10:22:26;1.83;;;1.73;;
62574;SDS011;70119;45.638;11.714;2023-07-31T10:24:54;2.28;;;2.08;;
62574;SDS011;70119;45.638;11.714;2023-07-31T10:27:22;2.70;;;1.95;;
62574;SDS011;70119;45.638;11.714;2023-07-31T10:29:48;1.92;;;1.83;;
62574;SDS011;70119;45.638;11.714;2023-07-31T10:32:15;2.45;;;1.88;;
62574;SDS011;70119;45.638;11.714;2023-07-31T10:34:43;2.08;;;1.88;;
62574;SDS011;70119;45.638;11.714;2023-07-31T10:37:25;1.95;;;1.85;;
62574;SDS011;70119;45.638;11.714;2023-07-31T10:39:56;2.08;;;1.88;;
62574;SDS011;70119;45.638;11.714;2023-07-31T10:42:34;2.08;;;1.80;;
62574;SDS011;70119;45.638;11.714;2023-07-31T10:45:02;2.03;;;1.80;;
62574;SDS011;70119;45.638;11.714;2023-07-31T10:47:30;1.80;;;1.70;;
62574;SDS011;70119;45.638;11.714;2023-07-31T10:52:58;2.78;;;1.90;;
62574;SDS011;70119;45.638;11.714;2023-07-31T10:55:32;2.20;;;1.92;;
62574;SDS011;70119;45.638;11.714;2023-07-31T10:58:11;1.85;;;1.75;;
62574;SDS011;70119;45.638;11.714;2023-07-31T11:00:41;2.50;;;1.98;;
62574;SDS011;70119;45.638;11.714;2023-07-31T11:03:10;1.95;;;1.75;;
62574;SDS011;70119;45.638;11.714;2023-07-31T11:05:46;3.38;;;1.83;;
62574;SDS011;70119;45.638;11.714;2023-07-31T11:08:15;2.40;;;2.10;;
62574;SDS011;70119;45.638;11.714;2023-07-31T11:10:43;2.88;;;1.90;;
62574;SDS011;70119;45.638;11.714;2023-07-31T11:13:10;2.13;;;1.90;;
62574;SDS011;70119;45.638;11.714;2023-07-31T11:15:36;2.25;;;1.95;;
62574;SDS011;70119;45.638;11.714;2023-07-31T11:18:02;2.78;;;2.20;;
62574;SDS011;70119;45.638;11.714;2023-07-31T11:20:32;3.15;;;2.20;;
62574;SDS011;70119;45.638;11.714;2023-07-31T11:23:01;3.63;;;2.60;;
62574;SDS011;70119;45.638;11.714;2023-07-31T11:25:30;3.80;;;2.50;;
62574;SDS011;70119;45.638;11.714;2023-07-31T11:27:57;3.50;;;2.53;;
62574;SDS011;70119;45.638;11.714;2023-07-31T11:30:27;3.63;;;2.42;;
62574;SDS011;70119;45.638;11.714;2023-07-31T11:32:54;3.85;;;2.40;;
62574;SDS011;70119;45.638;11.714;2023-07-31T11:35:21;2.80;;;2.40;;
62574;SDS011;70119;45.638;11.714;2023-07-31T11:37:47;3.00;;;2.28;;
62574;SDS011;70119;45.638;11.714;2023-07-31T11:40:13;3.20;;;2.20;;
62574;SDS011;70119;45.638;11.714;2023-07-31T11:42:40;3.92;;;2.38;;
62574;SDS011;70119;45.638;11.714;2023-07-31T11:45:06;3.03;;;2.40;;
62574;SDS011;70119;45.638;11.714;2023-07-31T11:47:34;3.20;;;2.40;;
62574;SDS011;70119;45.638;11.714;2023-07-31T11:50:02;3.38;;;2.15;;
62574;SDS011;70119;45.638;11.714;2023-07-31T11:52:29;4.07;;;2.40;;
62574;SDS011;70119;45.638;11.714;2023-07-31T11:55:00;2.70;;;2.30;;
62574;SDS011;70119;45.638;11.714;2023-07-31T11:57:26;3.97;;;2.50;;
62574;SDS011;70119;45.638;11.714;2023-07-31T11:59:54;2.47;;;2.17;;
62574;SDS011;70119;45.638;11.714;2023-07-31T12:02:20;2.65;;;2.10;;
62574;SDS011;70119;45.638;11.714;2023-07-31T12:04:52;3.30;;;2.20;;
62574;SDS011;70119;45.638;11.714;2023-07-31T12:07:54;3.45;;;2.10;;
62574;SDS011;70119;45.638;11.714;2023-07-31T12:10:28;3.58;;;2.15;;
62574;SDS011;70119;45.638;11.714;2023-07-31T12:13:02;2.92;;;2.10;;
62574;SDS011;70119;45.638;11.714;2023-07-31T12:18:12;2.67;;;2.05;;
62574;SDS011;70119;45.638;11.714;2023-07-31T12:20:55;2.65;;;2.10;;
62574;SDS011;70119;45.638;11.714;2023-07-31T12:23:27;3.13;;;1.83;;
62574;SDS011;70119;45.638;11.714;2023-07-31T12:26:06;2.28;;;1.92;;
62574;SDS011;70119;45.638;11.714;2023-07-31T12:31:18;2.20;;;2.00;;
62574;SDS011;70119;45.638;11.714;2023-07-31T12:33:46;2.13;;;1.90;;
62574;SDS011;70119;45.638;11.714;2023-07-31T12:36:20;3.40;;;2.00;;
62574;SDS011;70119;45.638;11.714;2023-07-31T12:38:48;1.83;;;1.73;;
62574;SDS011;70119;45.638;11.714;2023-07-31T12:41:15;2.33;;;2.00;;
62574;SDS011;70119;45.638;11.714;2023-07-31T12:43:41;2.33;;;2.00;;
62574;SDS011;70119;45.638;11.714;2023-07-31T12:46:09;2.10;;;1.90;;
62574;SDS011;70119;45.638;11.714;2023-07-31T12:48:35;2.92;;;1.95;;
62574;SDS011;70119;45.638;11.714;2023-07-31T12:51:05;2.45;;;1.90;;
62574;SDS011;70119;45.638;11.714;2023-07-31T12:53:34;2.25;;;1.98;;
62574;SDS011;70119;45.638;11.714;2023-07-31T12:58:29;2.00;;;1.80;;
62574;SDS011;70119;45.638;11.714;2023-07-31T13:00:57;2.05;;;1.85;;
62574;SDS011;70119;45.638;11.714;2023-07-31T13:05:54;2.10;;;1.90;;
62574;SDS011;70119;45.638;11.714;2023-07-31T13:08:20;2.58;;;1.70;;
62574;SDS011;70119;45.638;11.714;2023-07-31T13:10:46;2.83;;;1.90;;
62574;SDS011;70119;45.638;11.714;2023-07-31T13:13:13;5.57;;;2.17;;
62574;SDS011;70119;45.638;11.714;2023-07-31T13:15:39;2.00;;;1.80;;
62574;SDS011;70119;45.638;11.714;2023-07-31T13:18:05;1.85;;;1.73;;
62574;SDS011;70119;45.638;11.714;2023-07-31T13:20:31;1.90;;;1.70;;
62574;SDS011;70119;45.638;11.714;2023-07-31T13:22:57;3.47;;;1.80;;
62574;SDS011;70119;45.638;11.714;2023-07-31T13:25:23;1.90;;;1.70;;
62574;SDS011;70119;45.638;11.714;2023-07-31T13:27:48;1.90;;;1.80;;
62574;SDS011;70119;45.638;11.714;2023-07-31T13:30:14;2.40;;;1.92;;
62574;SDS011;70119;45.638;11.714;2023-07-31T13:32:40;3.17;;;1.90;;
62574;SDS011;70119;45.638;11.714;2023-07-31T13:35:06;2.25;;;1.70;;
62574;SDS011;70119;45.638;11.714;2023-07-31T13:37:34;2.10;;;1.80;;
62574;SDS011;70119;45.638;11.714;2023-07-31T13:40:00;1.98;;;1.75;;
62574;SDS011;70119;45.638;11.714;2023-07-31T13:42:26;2.70;;;1.70;;
62574;SDS011;70119;45.638;11.714;2023-07-31T13:44:53;3.03;;;1.83;;
62574;SDS011;70119;45.638;11.714;2023-07-31T13:47:21;1.95;;;1.70;;
62574;SDS011;70119;45.638;11.714;2023-07-31T13:49:47;1.85;;;1.60;;
62574;SDS011;70119;45.638;11.714;2023-07-31T13:52:12;1.70;;;1.60;;
62574;SDS011;70119;45.638;11.714;2023-07-31T13:54:38;2.55;;;1.83;;
62574;SDS011;70119;45.638;11.714;2023-07-31T13:57:04;2.15;;;1.80;;
62574;SDS011;70119;45.638;11.714;2023-07-31T13:59:31;2.10;;;1.90;;
62574;SDS011;70119;45.638;11.714;2023-07-31T14:01:57;2.90;;;1.90;;
62574;SDS011;70119;45.638;11.714;2023-07-31T14:04:23;2.35;;;1.90;;
62574;SDS011;70119;45.638;11.714;2023-07-31T14:06:50;1.92;;;1.80;;
62574;SDS011;70119;45.638;11.714;2023-07-31T14:09:17;1.63;;;1.52;;
62574;SDS011;70119;45.638;11.714;2023-07-31T14:11:44;2.83;;;1.73;;
62574;SDS011;70119;45.638;11.714;2023-07-31T14:14:11;3.35;;;1.80;;
62574;SDS011;70119;45.638;11.714;2023-07-31T14:16:38;1.90;;;1.70;;
62574;SDS011;70119;45.638;11.714;2023-07-31T14:19:05;1.83;;;1.70;;
62574;SDS011;70119;45.638;11.714;2023-07-31T14:21:33;1.70;;;1.60;;
62574;SDS011;70119;45.638;11.714;2023-07-31T14:24:00;3.08;;;1.70;;
62574;SDS011;70119;45.638;11.714;2023-07-31T14:26:26;1.63;;;1.52;;
62574;SDS011;70119;45.638;11.714;2023-07-31T14:28:53;1.98;;;1.63;;
62574;SDS011;70119;45.638;11.714;2023-07-31T14:31:19;1.98;;;1.63;;
62574;SDS011;70119;45.638;11.714;2023-07-31T14:33:46;1.92;;;1.60;;
62574;SDS011;70119;45.638;11.714;2023-07-31T14:36:13;1.70;;;1.60;;
62574;SDS011;70119;45.638;11.714;2023-07-31T14:38:39;2.63;;;1.70;;
62574;SDS011;70119;45.638;11.714;2023-07-31T14:41:05;1.80;;;1.70;;
62574;SDS011;70119;45.638;11.714;2023-07-31T14:43:34;2.85;;;1.80;;
62574;SDS011;70119;45.638;11.714;2023-07-31T14:46:00;3.50;;;1.70;;
62574;SDS011;70119;45.638;11.714;2023-07-31T14:48:26;2.88;;;1.70;;
62574;SDS011;70119;45.638;11.714;2023-07-31T14:50:54;3.63;;;1.70;;
62574;SDS011;70119;45.638;11.714;2023-07-31T14:53:20;1.98;;;1.50;;
62574;SDS011;70119;45.638;11.714;2023-07-31T14:55:46;1.67;;;1.58;;
62574;SDS011;70119;45.638;11.714;2023-07-31T14:58:12;2.25;;;1.60;;
62574;SDS011;70119;45.638;11.714;2023-07-31T15:00:39;2.38;;;1.70;;
62574;SDS011;70119;45.638;11.714;2023-07-31T15:03:05;1.73;;;1.48;;
62574;SDS011;70119;45.638;11.714;2023-07-31T15:05:31;3.72;;;1.60;;